createdAt,value
2022-11-21T00:00:36.200Z,8.0
2022-11-21T00:05:36.211Z,4.6
2022-11-21T00:10:36.213Z,4.6
2022-11-21T00:15:36.195Z,6.1
2022-11-21T00:20:36.211Z,6.8
2022-11-21T00:25:36.193Z,5.7
2022-11-21T00:30:36.254Z,6.8
2022-11-21T00:35:36.215Z,7.8
2022-11-21T00:40:36.204Z,7.8
2022-11-21T00:45:36.233Z,8.0
2022-11-21T00:50:36.216Z,6.0
2022-11-21T00:55:36.236Z,7.3
2022-11-21T01:00:36.283Z,7.2
2022-11-21T01:05:36.208Z,11.5
2022-11-21T01:10:36.200Z,11.5
2022-11-21T01:15:36.213Z,9.3
2022-11-21T01:20:36.224Z,10.7
2022-11-21T01:25:36.198Z,10.4
2022-11-21T01:30:36.215Z,8.4
2022-11-21T01:35:36.235Z,9.5
2022-11-21T01:40:36.204Z,9.5
2022-11-21T01:45:36.221Z,8.6
2022-11-21T01:50:36.207Z,11.6
2022-11-21T01:55:36.213Z,10.9
2022-11-21T02:00:36.236Z,7.9
2022-11-21T02:05:36.242Z,12.2
2022-11-21T02:10:36.216Z,12.2
2022-11-21T02:15:36.217Z,12.1
2022-11-21T02:20:36.198Z,12.3
2022-11-21T02:25:36.221Z,10.8
2022-11-21T02:30:36.226Z,9.2
2022-11-21T02:35:36.242Z,9.2
2022-11-21T02:40:36.214Z,9.2
2022-11-21T02:45:36.211Z,11.2
2022-11-21T02:50:36.233Z,13.5
2022-11-21T02:55:36.207Z,11.5
2022-11-21T03:00:36.286Z,9.4
2022-11-21T03:05:36.224Z,12.6
2022-11-21T03:10:36.222Z,12.6
2022-11-21T03:15:36.237Z,13.7
2022-11-21T03:20:36.230Z,12.6
2022-11-21T03:25:36.219Z,6.7
2022-11-21T03:30:36.280Z,11.5
2022-11-21T03:35:36.224Z,10.7
2022-11-21T03:40:36.298Z,10.7
2022-11-21T03:45:36.233Z,10.0
2022-11-21T03:50:36.219Z,9.3
2022-11-21T03:55:36.215Z,11.5
2022-11-21T04:00:36.220Z,11.3
2022-11-21T04:05:36.279Z,8.0
2022-11-21T04:10:36.224Z,8.0
2022-11-21T04:15:36.237Z,9.5
2022-11-21T04:20:36.230Z,9.9
2022-11-21T04:25:36.251Z,9.0
2022-11-21T04:30:36.222Z,12.5
2022-11-21T04:35:36.237Z,11.2
2022-11-21T04:40:36.215Z,11.2
2022-11-21T04:45:36.235Z,8.2
2022-11-21T04:50:36.236Z,9.5
2022-11-21T04:55:36.239Z,13.1
2022-11-21T05:00:36.238Z,13.8
2022-11-21T05:05:36.240Z,8.8
2022-11-21T05:10:36.247Z,8.8
2022-11-21T05:15:36.229Z,9.7
2022-11-21T05:20:37.083Z,10.1
2022-11-21T05:25:36.224Z,9.4
2022-11-21T05:30:36.241Z,12.2
2022-11-21T05:35:41.660Z,7.7
2022-11-21T05:40:36.230Z,7.7
2022-11-21T05:45:36.239Z,10.3
2022-11-21T05:50:36.263Z,11.8
2022-11-21T05:55:36.224Z,9.6
2022-11-21T06:00:36.234Z,11.6
2022-11-21T06:05:36.259Z,11.3
2022-11-21T06:10:36.240Z,11.3
2022-11-21T06:15:36.236Z,7.7
2022-11-21T06:20:36.322Z,11.3
2022-11-21T06:25:36.254Z,9.7
2022-11-21T06:30:36.244Z,7.0
2022-11-21T06:35:36.278Z,15.6
2022-11-21T06:40:36.254Z,15.6
2022-11-21T06:45:36.238Z,9.3
2022-11-21T06:50:36.301Z,25.2
2022-11-21T06:55:36.248Z,23.4
2022-11-21T07:00:36.241Z,16.7
2022-11-21T07:05:36.244Z,9.9
2022-11-21T07:10:36.282Z,9.9
2022-11-21T07:15:36.242Z,9.1
2022-11-21T07:20:36.248Z,9.1
2022-11-21T07:25:37.004Z,9.0
2022-11-21T07:30:36.275Z,11.7
2022-11-21T07:35:36.257Z,12.0
2022-11-21T07:40:36.255Z,12.0
2022-11-21T07:45:36.260Z,11.9
2022-11-21T07:50:36.263Z,8.5
2022-11-21T07:55:40.190Z,11.7
2022-11-21T08:00:36.256Z,9.2
2022-11-21T08:05:36.252Z,9.2
2022-11-21T08:10:36.273Z,11.1
2022-11-21T08:15:36.257Z,12.7
2022-11-21T08:20:36.273Z,15.7
2022-11-21T08:25:36.262Z,15.2
2022-11-21T08:30:36.286Z,12.8
2022-11-21T08:35:36.289Z,12.8
2022-11-21T08:40:36.269Z,10.0
2022-11-21T08:45:36.325Z,13.0
2022-11-21T08:50:36.288Z,19.3
2022-11-21T08:55:36.286Z,18.4
2022-11-21T09:00:36.269Z,26.9
2022-11-21T09:05:36.304Z,26.9
2022-11-21T09:10:36.270Z,17.0
2022-11-21T09:15:36.274Z,27.0
2022-11-21T09:20:36.510Z,19.5
2022-11-21T09:25:36.262Z,19.0
2022-11-21T09:30:36.279Z,25.5
2022-11-21T09:35:36.311Z,25.5
2022-11-21T09:40:36.276Z,21.3
2022-11-21T09:45:36.289Z,20.0
2022-11-21T09:50:36.273Z,21.1
2022-11-21T09:55:36.340Z,31.3
2022-11-21T10:00:36.297Z,16.9
2022-11-21T10:05:36.249Z,16.9
2022-11-21T10:10:36.254Z,28.9
2022-11-21T10:15:36.292Z,22.1
2022-11-21T10:20:36.287Z,21.1
2022-11-21T10:25:36.322Z,21.3
2022-11-21T10:30:36.361Z,17.5
2022-11-21T10:35:36.306Z,17.5
2022-11-21T10:40:36.283Z,20.2
2022-11-21T10:45:36.317Z,12.6
2022-11-21T10:50:36.296Z,18.1
2022-11-21T10:55:36.307Z,20.1
2022-11-21T11:00:36.323Z,19.4
2022-11-21T11:05:36.307Z,19.4
2022-11-21T11:10:36.283Z,28.1
2022-11-21T11:15:36.335Z,22.4
2022-11-21T11:20:36.294Z,15.7
2022-11-21T11:25:36.315Z,19.5
2022-11-21T11:30:36.318Z,10.5
2022-11-21T11:35:36.386Z,10.5
2022-11-21T11:40:36.314Z,19.4
2022-11-21T11:45:36.305Z,17.1
2022-11-21T11:50:36.323Z,11.8
2022-11-21T11:55:36.307Z,18.2
2022-11-21T12:00:36.300Z,24.8
2022-11-21T12:05:36.320Z,24.8
2022-11-21T12:10:36.309Z,16.0
2022-11-21T12:15:36.310Z,13.6
2022-11-21T12:20:36.306Z,7.0
2022-11-21T12:25:36.326Z,9.5
2022-11-21T12:30:36.312Z,13.2
2022-11-21T12:35:36.327Z,13.2
2022-11-21T12:40:36.331Z,12.3
2022-11-21T12:45:36.334Z,12.6
2022-11-21T12:50:36.321Z,15.8
2022-11-21T12:55:36.339Z,13.6
2022-11-21T13:00:36.315Z,11.7
2022-11-21T13:05:36.394Z,11.7
2022-11-21T13:10:36.332Z,9.5
2022-11-21T13:15:38.565Z,7.0
2022-11-21T13:20:36.348Z,8.5
2022-11-21T13:25:36.343Z,12.2
2022-11-21T13:30:36.323Z,9.3
2022-11-21T13:35:36.357Z,9.3
2022-11-21T13:40:36.334Z,13.1
2022-11-21T13:45:36.397Z,9.1
2022-11-21T13:50:36.349Z,15.1
2022-11-21T13:55:36.349Z,17.1
2022-11-21T14:00:36.331Z,10.2
2022-11-21T14:05:36.369Z,10.2
2022-11-21T14:10:36.338Z,9.9
2022-11-21T14:15:36.337Z,20.2
2022-11-21T14:20:36.349Z,12.5
2022-11-21T14:25:36.338Z,9.5
2022-11-21T14:30:36.349Z,8.0
2022-11-21T14:35:36.435Z,8.0
2022-11-21T14:40:36.398Z,16.7
2022-11-21T14:45:36.362Z,14.1
2022-11-21T14:50:36.362Z,12.4
2022-11-21T14:55:36.351Z,11.7
2022-11-21T15:00:59.735Z,25.5
2022-11-21T15:06:00.644Z,25.5
2022-11-21T15:10:36.725Z,11.6
2022-11-21T15:15:36.407Z,15.3
2022-11-21T15:20:36.356Z,10.4
2022-11-21T15:25:36.370Z,12.6
2022-11-21T15:30:36.311Z,17.1
2022-11-21T15:35:36.377Z,17.1
2022-11-21T15:40:36.392Z,17.9
2022-11-21T15:45:36.362Z,25.6
2022-11-21T15:50:36.374Z,17.3
2022-11-21T15:55:36.401Z,15.8
2022-11-21T16:04:22.412Z,14.8
2022-11-21T16:09:17.683Z,18.5
2022-11-21T16:14:17.655Z,16.3
2022-11-21T16:19:17.819Z,19.5
2022-11-21T16:24:17.675Z,12.7
2022-11-21T16:29:17.685Z,12.7
2022-11-21T16:34:17.671Z,12.8
2022-11-21T16:39:18.608Z,22.4
2022-11-21T16:44:17.686Z,18.0
2022-11-21T16:49:17.654Z,17.7
2022-11-21T16:54:17.704Z,19.2
2022-11-21T16:59:17.668Z,19.2
2022-11-21T17:04:17.832Z,21.3
2022-11-21T17:09:17.686Z,20.4
2022-11-21T17:14:17.676Z,21.1
2022-11-21T17:19:17.683Z,21.8
2022-11-21T17:24:17.682Z,22.8
2022-11-21T17:29:17.697Z,22.8
2022-11-21T17:34:17.771Z,12.9
2022-11-21T17:39:17.697Z,13.2
2022-11-21T17:44:17.656Z,16.8
2022-11-21T17:49:17.778Z,16.4
2022-11-21T17:54:17.706Z,18.0
2022-11-21T17:59:17.705Z,18.0
2022-11-21T18:04:17.720Z,21.9
2022-11-21T18:09:17.706Z,15.0
2022-11-21T18:14:17.711Z,32.6
2022-11-21T18:19:17.712Z,12.1
2022-11-21T18:24:17.710Z,14.6
2022-11-21T18:29:35.653Z,14.6
2022-11-21T18:34:17.713Z,10.9
2022-11-21T18:39:17.780Z,14.3
2022-11-21T18:44:21.955Z,18.2
2022-11-21T18:49:18.330Z,13.0
2022-11-21T18:54:17.715Z,12.4
2022-11-21T18:59:17.730Z,12.4
2022-11-21T19:04:17.693Z,20.2
2022-11-21T19:09:17.738Z,16.5
2022-11-21T19:14:17.700Z,14.3
2022-11-21T19:19:35.088Z,19.4
2022-11-21T19:24:17.716Z,13.3
2022-11-21T19:29:17.709Z,13.3
2022-11-21T19:34:17.713Z,16.5
2022-11-21T19:39:17.713Z,9.0
2022-11-21T19:44:17.715Z,12.1
2022-11-21T19:49:17.700Z,14.8
2022-11-21T19:54:17.715Z,19.5
2022-11-21T19:59:17.700Z,19.5
2022-11-21T20:04:17.711Z,12.8
2022-11-21T20:09:17.742Z,20.9
2022-11-21T20:14:21.840Z,15.8
2022-11-21T20:19:17.732Z,14.6
2022-11-21T20:24:17.728Z,12.4
2022-11-21T20:29:17.724Z,12.4
2022-11-21T20:34:17.722Z,13.5
2022-11-21T20:39:17.759Z,15.1
2022-11-21T20:45:48.120Z,5.8
2022-11-21T20:49:17.722Z,12.3
2022-11-21T20:54:17.724Z,6.5
2022-11-21T20:59:17.714Z,6.5
2022-11-21T21:04:17.725Z,9.6
2022-11-21T21:09:17.727Z,12.4
2022-11-21T21:14:17.710Z,16.5
2022-11-21T21:19:17.715Z,9.7
2022-11-21T21:24:17.730Z,5.9
2022-11-21T21:29:17.731Z,5.9
2022-11-21T21:34:17.890Z,6.1
2022-11-21T21:39:17.713Z,12.4
2022-11-21T21:44:17.739Z,7.8
2022-11-21T21:49:17.724Z,5.8
2022-11-21T21:54:17.742Z,6.3
2022-11-21T21:59:17.730Z,6.3
2022-11-21T22:04:17.729Z,13.3
2022-11-21T22:09:17.729Z,6.7
2022-11-21T22:14:17.728Z,11.7
2022-11-21T22:19:17.722Z,5.4
2022-11-21T22:24:25.245Z,11.0
2022-11-21T22:29:17.742Z,11.0
2022-11-21T22:34:17.724Z,7.5
2022-11-21T22:39:17.707Z,8.4
2022-11-21T22:44:17.728Z,6.9
2022-11-21T22:49:17.720Z,11.5
2022-11-21T22:54:17.728Z,10.3
2022-11-21T22:59:17.745Z,10.3
2022-11-21T23:04:29.665Z,13.2
2022-11-21T23:09:17.732Z,13.7
2022-11-21T23:14:17.739Z,10.5
2022-11-21T23:19:17.753Z,12.1
2022-11-21T23:24:17.759Z,14.6
2022-11-21T23:29:17.710Z,14.6
2022-11-21T23:34:17.728Z,14.7
2022-11-21T23:39:17.742Z,14.9
2022-11-21T23:44:17.733Z,9.1
2022-11-21T23:49:17.726Z,7.1
2022-11-21T23:59:17.718Z,14.7
